sensor_id;sensor_type;location;lat;lon;timestamp;pressure;altitude;pressure_sealevel;temperature;humidity
12360;BME280;6244;51.460;7.090;2023-07-13T00:00:30;100492.53;;;17.77;53.59
12360;BME280;6244;51.460;7.090;2023-07-13T00:05:27;100505.28;;;17.51;54.86
12360;BME280;6244;51.460;7.090;2023-07-13T00:10:25;100492.06;;;17.61;55.20
12360;BME280;6244;51.460;7.090;2023-07-13T00:15:23;100501.50;;;17.65;55.25
12360;BME280;6244;51.460;7.090;2023-07-13T00:20:22;100496.50;;;17.51;55.92
12360;BME280;6244;51.460;7.090;2023-07-13T00:25:20;100493.66;;;17.64;55.57
12360;BME280;6244;51.460;7.090;2023-07-13T00:30:18;100493.41;;;17.67;55.41
12360;BME280;6244;51.460;7.090;2023-07-13T00:35:15;100494.63;;;17.63;55.16
12360;BME280;6244;51.460;7.090;2023-07-13T00:40:13;100489.38;;;17.51;55.50
12360;BME280;6244;51.460;7.090;2023-07-13T00:50:42;100496.94;;;17.24;56.76
12360;BME280;6244;51.460;7.090;2023-07-13T00:55:40;100494.44;;;17.43;55.66
12360;BME280;6244;51.460;7.090;2023-07-13T01:00:38;100491.44;;;17.05;56.49
12360;BME280;6244;51.460;7.090;2023-07-13T01:05:35;100495.88;;;17.04;56.42
12360;BME280;6244;51.460;7.090;2023-07-13T01:10:34;100500.03;;;17.29;55.86
12360;BME280;6244;51.460;7.090;2023-07-13T01:15:36;100496.59;;;17.17;56.00
12360;BME280;6244;51.460;7.090;2023-07-13T01:20:33;100491.31;;;17.06;56.50
12360;BME280;6244;51.460;7.090;2023-07-13T01:25:33;100480.22;;;17.44;55.50
12360;BME280;6244;51.460;7.090;2023-07-13T01:30:30;100481.72;;;17.69;54.98
12360;BME280;6244;51.460;7.090;2023-07-13T01:35:27;100485.25;;;17.47;55.95
12360;BME280;6244;51.460;7.090;2023-07-13T01:40:23;100490.47;;;17.06;56.62
12360;BME280;6244;51.460;7.090;2023-07-13T01:45:21;100491.41;;;17.16;57.28
12360;BME280;6244;51.460;7.090;2023-07-13T01:50:18;100493.16;;;17.38;56.49
12360;BME280;6244;51.460;7.090;2023-07-13T01:55:15;100493.25;;;17.68;56.23
12360;BME280;6244;51.460;7.090;2023-07-13T02:00:12;100500.03;;;17.29;56.76
12360;BME280;6244;51.460;7.090;2023-07-13T02:05:11;100505.06;;;16.89;57.79
12360;BME280;6244;51.460;7.090;2023-07-13T02:10:10;100512.28;;;16.53;58.93
12360;BME280;6244;51.460;7.090;2023-07-13T02:15:07;100502.63;;;16.30;59.76
12360;BME280;6244;51.460;7.090;2023-07-13T02:20:05;100501.94;;;16.39;59.39
12360;BME280;6244;51.460;7.090;2023-07-13T02:25:04;100504.31;;;16.31;59.39
12360;BME280;6244;51.460;7.090;2023-07-13T02:30:01;100503.91;;;16.02;60.25
12360;BME280;6244;51.460;7.090;2023-07-13T02:34:58;100505.22;;;16.07;60.13
12360;BME280;6244;51.460;7.090;2023-07-13T02:39:54;100492.69;;;15.98;60.16
12360;BME280;6244;51.460;7.090;2023-07-13T02:44:52;100496.63;;;15.81;61.12
12360;BME280;6244;51.460;7.090;2023-07-13T02:49:49;100502.19;;;15.90;60.95
12360;BME280;6244;51.460;7.090;2023-07-13T02:54:45;100504.72;;;15.91;61.24
12360;BME280;6244;51.460;7.090;2023-07-13T02:59:42;100509.66;;;15.96;61.20
12360;BME280;6244;51.460;7.090;2023-07-13T03:04:40;100520.31;;;15.59;62.59
12360;BME280;6244;51.460;7.090;2023-07-13T03:09:37;100515.56;;;15.64;62.61
12360;BME280;6244;51.460;7.090;2023-07-13T03:14:33;100512.00;;;15.76;62.08
12360;BME280;6244;51.460;7.090;2023-07-13T03:19:39;100519.78;;;15.67;62.38
12360;BME280;6244;51.460;7.090;2023-07-13T03:24:36;100514.38;;;15.68;62.63
12360;BME280;6244;51.460;7.090;2023-07-13T03:29:33;100527.41;;;15.58;63.16
12360;BME280;6244;51.460;7.090;2023-07-13T03:34:29;100525.53;;;15.48;63.68
12360;BME280;6244;51.460;7.090;2023-07-13T03:39:27;100524.41;;;15.76;63.11
12360;BME280;6244;51.460;7.090;2023-07-13T03:44:24;100530.59;;;15.64;63.64
12360;BME280;6244;51.460;7.090;2023-07-13T03:49:20;100547.72;;;15.58;63.98
12360;BME280;6244;51.460;7.090;2023-07-13T03:54:17;100551.16;;;15.47;64.15
12360;BME280;6244;51.460;7.090;2023-07-13T03:59:15;100553.84;;;15.58;64.04
12360;BME280;6244;51.460;7.090;2023-07-13T04:04:11;100553.72;;;15.36;65.68
12360;BME280;6244;51.460;7.090;2023-07-13T04:09:08;100563.63;;;15.45;65.43
12360;BME280;6244;51.460;7.090;2023-07-13T04:14:05;100568.78;;;15.60;65.07
12360;BME280;6244;51.460;7.090;2023-07-13T04:19:02;100570.72;;;15.45;65.65
12360;BME280;6244;51.460;7.090;2023-07-13T04:23:59;100569.47;;;15.38;66.03
12360;BME280;6244;51.460;7.090;2023-07-13T04:28:56;100569.94;;;15.55;65.67
12360;BME280;6244;51.460;7.090;2023-07-13T04:33:53;100575.78;;;15.48;65.76
12360;BME280;6244;51.460;7.090;2023-07-13T04:38:51;100579.13;;;15.39;66.06
12360;BME280;6244;51.460;7.090;2023-07-13T04:43:49;100590.50;;;15.52;65.96
12360;BME280;6244;51.460;7.090;2023-07-13T04:48:46;100588.78;;;15.64;65.81
12360;BME280;6244;51.460;7.090;2023-07-13T04:53:42;100582.56;;;15.52;66.89
12360;BME280;6244;51.460;7.090;2023-07-13T04:58:40;100588.88;;;15.62;66.48
12360;BME280;6244;51.460;7.090;2023-07-13T05:03:37;100591.94;;;15.93;65.79
12360;BME280;6244;51.460;7.090;2023-07-13T05:08:34;100591.16;;;15.79;66.67
12360;BME280;6244;51.460;7.090;2023-07-13T05:13:30;100590.69;;;15.85;66.70
12360;BME280;6244;51.460;7.090;2023-07-13T05:18:29;100588.88;;;15.86;66.42
12360;BME280;6244;51.460;7.090;2023-07-13T05:23:26;100597.09;;;15.94;66.28
12360;BME280;6244;51.460;7.090;2023-07-13T05:28:23;100600.72;;;15.93;66.89
12360;BME280;6244;51.460;7.090;2023-07-13T05:33:20;100618.16;;;15.96;66.51
12360;BME280;6244;51.460;7.090;2023-07-13T05:38:18;100620.19;;;16.16;66.38
12360;BME280;6244;51.460;7.090;2023-07-13T05:43:15;100618.53;;;16.26;65.98
12360;BME280;6244;51.460;7.090;2023-07-13T05:48:11;100625.41;;;16.29;66.61
12360;BME280;6244;51.460;7.090;2023-07-13T05:53:08;100621.31;;;16.71;65.05
12360;BME280;6244;51.460;7.090;2023-07-13T05:58:06;100620.13;;;16.40;65.93
12360;BME280;6244;51.460;7.090;2023-07-13T06:03:02;100628.97;;;16.52;65.69
12360;BME280;6244;51.460;7.090;2023-07-13T06:07:59;100641.78;;;16.34;66.10
12360;BME280;6244;51.460;7.090;2023-07-13T06:12:55;100639.16;;;16.10;67.77
12360;BME280;6244;51.460;7.090;2023-07-13T06:17:53;100653.19;;;15.99;68.33
12360;BME280;6244;51.460;7.090;2023-07-13T06:22:50;100647.66;;;16.26;68.70
12360;BME280;6244;51.460;7.090;2023-07-13T06:27:46;100653.50;;;16.19;68.17
12360;BME280;6244;51.460;7.090;2023-07-13T06:32:43;100659.94;;;16.27;68.64
12360;BME280;6244;51.460;7.090;2023-07-13T06:37:41;100656.50;;;16.38;68.00
12360;BME280;6244;51.460;7.090;2023-07-13T06:42:37;100666.38;;;16.47;67.51
12360;BME280;6244;51.460;7.090;2023-07-13T06:47:34;100667.59;;;16.54;67.90
12360;BME280;6244;51.460;7.090;2023-07-13T06:52:31;100660.66;;;16.64;66.92
12360;BME280;6244;51.460;7.090;2023-07-13T06:57:29;100674.53;;;16.68;67.36
12360;BME280;6244;51.460;7.090;2023-07-13T07:02:25;100676.00;;;16.83;67.38
12360;BME280;6244;51.460;7.090;2023-07-13T07:07:23;100679.53;;;16.95;66.75
12360;BME280;6244;51.460;7.090;2023-07-13T07:12:20;100672.31;;;17.19;65.36
12360;BME280;6244;51.460;7.090;2023-07-13T07:17:18;100676.53;;;17.22;65.94
12360;BME280;6244;51.460;7.090;2023-07-13T07:22:14;100673.28;;;17.29;65.22
12360;BME280;6244;51.460;7.090;2023-07-13T07:27:11;100684.59;;;17.54;64.56
12360;BME280;6244;51.460;7.090;2023-07-13T07:32:07;100682.06;;;17.75;63.88
12360;BME280;6244;51.460;7.090;2023-07-13T07:37:06;100686.78;;;17.71;64.35
12360;BME280;6244;51.460;7.090;2023-07-13T07:42:02;100689.78;;;17.89;64.04
12360;BME280;6244;51.460;7.090;2023-07-13T07:46:59;100686.19;;;18.43;62.59
12360;BME280;6244;51.460;7.090;2023-07-13T07:51:56;100674.25;;;18.69;60.87
12360;BME280;6244;51.460;7.090;2023-07-13T07:56:54;100695.34;;;18.18;62.25
12360;BME280;6244;51.460;7.090;2023-07-13T08:01:50;100694.72;;;18.26;62.76
12360;BME280;6244;51.460;7.090;2023-07-13T08:06:47;100687.06;;;18.11;62.82
12360;BME280;6244;51.460;7.090;2023-07-13T08:11:43;100690.25;;;18.47;61.63
12360;BME280;6244;51.460;7.090;2023-07-13T08:16:41;100680.41;;;18.91;61.35
12360;BME280;6244;51.460;7.090;2023-07-13T08:21:37;100683.19;;;19.20;60.13
12360;BME280;6244;51.460;7.090;2023-07-13T08:26:34;100685.09;;;19.08;59.93
12360;BME280;6244;51.460;7.090;2023-07-13T08:31:30;100683.72;;;19.75;57.12
12360;BME280;6244;51.460;7.090;2023-07-13T08:36:29;100689.28;;;20.50;55.98
12360;BME280;6244;51.460;7.090;2023-07-13T08:41:26;100687.66;;;20.96;53.01
12360;BME280;6244;51.460;7.090;2023-07-13T08:46:26;100684.59;;;21.65;50.58
12360;BME280;6244;51.460;7.090;2023-07-13T08:51:40;100673.13;;;21.18;53.38
12360;BME280;6244;51.460;7.090;2023-07-13T08:56:38;100676.75;;;22.27;49.77
12360;BME280;6244;51.460;7.090;2023-07-13T09:01:47;100667.66;;;22.20;49.63
12360;BME280;6244;51.460;7.090;2023-07-13T09:07:00;100673.56;;;21.14;52.85
12360;BME280;6244;51.460;7.090;2023-07-13T09:12:07;100672.06;;;21.48;52.71
12360;BME280;6244;51.460;7.090;2023-07-13T09:17:08;100681.06;;;21.92;51.27
12360;BME280;6244;51.460;7.090;2023-07-13T09:22:11;100683.66;;;21.57;51.80
12360;BME280;6244;51.460;7.090;2023-07-13T09:27:17;100675.75;;;22.28;49.41
12360;BME280;6244;51.460;7.090;2023-07-13T09:32:17;100679.59;;;22.69;48.88
12360;BME280;6244;51.460;7.090;2023-07-13T09:37:18;100672.81;;;22.75;48.40
12360;BME280;6244;51.460;7.090;2023-07-13T09:42:16;100683.78;;;22.10;50.64
12360;BME280;6244;51.460;7.090;2023-07-13T09:47:16;100679.75;;;22.68;47.98
12360;BME280;6244;51.460;7.090;2023-07-13T09:52:15;100684.84;;;22.79;48.50
12360;BME280;6244;51.460;7.090;2023-07-13T09:57:15;100689.19;;;22.18;50.12
12360;BME280;6244;51.460;7.090;2023-07-13T10:02:27;100682.31;;;21.43;52.55
12360;BME280;6244;51.460;7.090;2023-07-13T10:07:24;100690.09;;;21.36;53.20
12360;BME280;6244;51.460;7.090;2023-07-13T10:12:22;100693.34;;;22.13;52.71
12360;BME280;6244;51.460;7.090;2023-07-13T10:17:26;100698.84;;;22.11;49.60
12360;BME280;6244;51.460;7.090;2023-07-13T10:22:29;100709.34;;;21.21;51.77
12360;BME280;6244;51.460;7.090;2023-07-13T10:27:34;100707.03;;;20.98;53.06
12360;BME280;6244;51.460;7.090;2023-07-13T10:32:31;100705.25;;;20.41;54.66
12360;BME280;6244;51.460;7.090;2023-07-13T10:37:31;100700.47;;;20.25;55.42
12360;BME280;6244;51.460;7.090;2023-07-13T10:42:33;100707.59;;;21.02;53.03
12360;BME280;6244;51.460;7.090;2023-07-13T10:47:31;100701.25;;;21.77;52.70
12360;BME280;6244;51.460;7.090;2023-07-13T10:52:42;100707.84;;;22.46;49.16
12360;BME280;6244;51.460;7.090;2023-07-13T10:57:42;100708.78;;;22.80;48.23
12360;BME280;6244;51.460;7.090;2023-07-13T11:02:39;100712.56;;;22.70;48.76
12360;BME280;6244;51.460;7.090;2023-07-13T11:07:52;100717.25;;;22.94;47.99
12360;BME280;6244;51.460;7.090;2023-07-13T11:12:53;100708.81;;;23.58;45.13
12360;BME280;6244;51.460;7.090;2023-07-13T11:17:53;100705.50;;;24.39;42.31
12360;BME280;6244;51.460;7.090;2023-07-13T11:23:18;100702.31;;;24.52;40.01
12360;BME280;6244;51.460;7.090;2023-07-13T11:28:21;100707.88;;;24.50;42.04
12360;BME280;6244;51.460;7.090;2023-07-13T11:33:21;100707.00;;;23.07;45.63
12360;BME280;6244;51.460;7.090;2023-07-13T11:38:20;100707.59;;;23.95;44.85
12360;BME280;6244;51.460;7.090;2023-07-13T11:43:19;100684.56;;;25.47;40.93
12360;BME280;6244;51.460;7.090;2023-07-13T11:48:24;100687.25;;;26.17;37.80
12360;BME280;6244;51.460;7.090;2023-07-13T11:53:21;100691.72;;;24.99;38.36
12360;BME280;6244;51.460;7.090;2023-07-13T11:58:23;100685.53;;;24.66;39.60
12360;BME280;6244;51.460;7.090;2023-07-13T12:03:22;100677.50;;;24.74;41.38
12360;BME280;6244;51.460;7.090;2023-07-13T12:08:20;100677.09;;;23.96;40.74
12360;BME280;6244;51.460;7.090;2023-07-13T12:13:17;100670.97;;;24.60;40.84
12360;BME280;6244;51.460;7.090;2023-07-13T12:18:17;100675.63;;;24.26;43.46
12360;BME280;6244;51.460;7.090;2023-07-13T12:23:20;100668.44;;;24.43;39.80
12360;BME280;6244;51.460;7.090;2023-07-13T12:28:29;100676.03;;;23.81;41.22
12360;BME280;6244;51.460;7.090;2023-07-13T12:33:29;100677.63;;;23.57;41.65
12360;BME280;6244;51.460;7.090;2023-07-13T12:38:27;100671.47;;;23.65;42.04
12360;BME280;6244;51.460;7.090;2023-07-13T12:43:24;100667.69;;;23.84;40.50
12360;BME280;6244;51.460;7.090;2023-07-13T12:48:22;100666.31;;;23.71;41.04
12360;BME280;6244;51.460;7.090;2023-07-13T12:53:22;100675.13;;;23.22;41.39
12360;BME280;6244;51.460;7.090;2023-07-13T12:58:22;100673.41;;;23.47;42.06
12360;BME280;6244;51.460;7.090;2023-07-13T13:03:25;100675.44;;;22.93;42.21
12360;BME280;6244;51.460;7.090;2023-07-13T13:08:23;100681.94;;;22.46;43.78
12360;BME280;6244;51.460;7.090;2023-07-13T13:13:20;100688.81;;;22.13;43.31
12360;BME280;6244;51.460;7.090;2023-07-13T13:18:17;100698.84;;;21.84;44.71
12360;BME280;6244;51.460;7.090;2023-07-13T13:23:15;100716.84;;;21.54;45.92
12360;BME280;6244;51.460;7.090;2023-07-13T13:28:15;100749.19;;;20.85;54.35
12360;BME280;6244;51.460;7.090;2023-07-13T13:33:16;100744.13;;;19.23;65.38
12360;BME280;6244;51.460;7.090;2023-07-13T13:38:14;100756.88;;;19.50;64.65
12360;BME280;6244;51.460;7.090;2023-07-13T13:43:16;100758.66;;;19.70;67.86
12360;BME280;6244;51.460;7.090;2023-07-13T13:48:18;100741.84;;;20.39;66.88
12360;BME280;6244;51.460;7.090;2023-07-13T13:53:15;100744.66;;;20.95;63.09
12360;BME280;6244;51.460;7.090;2023-07-13T13:58:11;100738.81;;;21.38;63.81
12360;BME280;6244;51.460;7.090;2023-07-13T14:03:14;100737.22;;;21.83;59.28
12360;BME280;6244;51.460;7.090;2023-07-13T14:08:13;100734.59;;;22.01;58.42
12360;BME280;6244;51.460;7.090;2023-07-13T14:13:16;100731.13;;;22.18;59.08
12360;BME280;6244;51.460;7.090;2023-07-13T14:18:16;100737.94;;;22.03;57.76
12360;BME280;6244;51.460;7.090;2023-07-13T14:23:14;100754.31;;;21.72;58.06
12360;BME280;6244;51.460;7.090;2023-07-13T14:28:19;100781.03;;;19.88;67.66
12360;BME280;6244;51.460;7.090;2023-07-13T14:33:18;100786.53;;;18.51;77.47
12360;BME280;6244;51.460;7.090;2023-07-13T14:38:17;100774.50;;;18.78;81.63
12360;BME280;6244;51.460;7.090;2023-07-13T14:43:16;100767.97;;;19.34;80.34
12360;BME280;6244;51.460;7.090;2023-07-13T14:48:15;100768.47;;;19.70;77.47
12360;BME280;6244;51.460;7.090;2023-07-13T14:53:14;100763.31;;;19.78;76.85
12360;BME280;6244;51.460;7.090;2023-07-13T14:58:10;100742.78;;;19.99;75.72
12360;BME280;6244;51.460;7.090;2023-07-13T15:03:17;100744.78;;;20.26;74.01
12360;BME280;6244;51.460;7.090;2023-07-13T15:08:18;100744.28;;;20.51;72.69
12360;BME280;6244;51.460;7.090;2023-07-13T15:13:16;100744.00;;;20.84;74.29
12360;BME280;6244;51.460;7.090;2023-07-13T15:18:14;100746.66;;;20.74;70.94
12360;BME280;6244;51.460;7.090;2023-07-13T15:23:13;100740.78;;;20.61;70.22
12360;BME280;6244;51.460;7.090;2023-07-13T15:28:11;100740.72;;;20.41;70.72
12360;BME280;6244;51.460;7.090;2023-07-13T15:33:12;100747.84;;;20.02;72.18
12360;BME280;6244;51.460;7.090;2023-07-13T15:38:13;100750.28;;;19.75;72.30
12360;BME280;6244;51.460;7.090;2023-07-13T15:43:13;100760.06;;;19.44;72.19
12360;BME280;6244;51.460;7.090;2023-07-13T15:48:13;100824.69;;;18.61;76.53
12360;BME280;6244;51.460;7.090;2023-07-13T15:53:10;100808.38;;;17.77;79.44
12360;BME280;6244;51.460;7.090;2023-07-13T15:58:09;100805.53;;;17.45;80.89
12360;BME280;6244;51.460;7.090;2023-07-13T16:03:09;100807.38;;;17.67;82.32
12360;BME280;6244;51.460;7.090;2023-07-13T16:08:06;100789.03;;;17.98;81.84
12360;BME280;6244;51.460;7.090;2023-07-13T16:13:05;100801.59;;;17.73;82.15
12360;BME280;6244;51.460;7.090;2023-07-13T16:18:02;100796.75;;;17.45;82.75
12360;BME280;6244;51.460;7.090;2023-07-13T16:23:01;100808.56;;;17.41;83.92
12360;BME280;6244;51.460;7.090;2023-07-13T16:27:58;100805.53;;;17.34;84.45
12360;BME280;6244;51.460;7.090;2023-07-13T16:32:58;100807.13;;;17.37;84.52
12360;BME280;6244;51.460;7.090;2023-07-13T16:38:01;100811.38;;;17.84;82.34
12360;BME280;6244;51.460;7.090;2023-07-13T16:42:59;100792.31;;;18.12;81.84
12360;BME280;6244;51.460;7.090;2023-07-13T16:48:00;100799.66;;;18.09;82.35
12360;BME280;6244;51.460;7.090;2023-07-13T16:52:57;100792.72;;;18.40;80.37
12360;BME280;6244;51.460;7.090;2023-07-13T16:57:57;100796.66;;;19.10;78.01
12360;BME280;6244;51.460;7.090;2023-07-13T17:02:56;100781.63;;;19.61;76.52
12360;BME280;6244;51.460;7.090;2023-07-13T17:07:57;100792.59;;;19.26;78.22
12360;BME280;6244;51.460;7.090;2023-07-13T17:12:56;100790.59;;;19.70;77.69
12360;BME280;6244;51.460;7.090;2023-07-13T17:17:52;100795.94;;;19.70;77.86
12360;BME280;6244;51.460;7.090;2023-07-13T17:22:58;100803.22;;;18.85;76.23
12360;BME280;6244;51.460;7.090;2023-07-13T17:27:56;100806.81;;;18.52;78.44
12360;BME280;6244;51.460;7.090;2023-07-13T17:32:53;100810.41;;;18.73;77.36
12360;BME280;6244;51.460;7.090;2023-07-13T17:37:52;100813.81;;;18.53;77.94
12360;BME280;6244;51.460;7.090;2023-07-13T17:42:49;100797.63;;;18.12;77.17
12360;BME280;6244;51.460;7.090;2023-07-13T17:47:50;100794.25;;;17.99;78.22
12360;BME280;6244;51.460;7.090;2023-07-13T17:52:48;100799.91;;;17.95;77.37
12360;BME280;6244;51.460;7.090;2023-07-13T17:57:45;100807.97;;;18.27;81.02
12360;BME280;6244;51.460;7.090;2023-07-13T18:02:43;100804.59;;;18.25;78.68
12360;BME280;6244;51.460;7.090;2023-07-13T18:07:41;100793.78;;;17.83;75.83
12360;BME280;6244;51.460;7.090;2023-07-13T18:12:38;100799.72;;;17.75;79.15
12360;BME280;6244;51.460;7.090;2023-07-13T18:17:34;100809.47;;;17.75;77.78
12360;BME280;6244;51.460;7.090;2023-07-13T18:22:32;100805.34;;;18.15;78.66
12360;BME280;6244;51.460;7.090;2023-07-13T18:27:30;100805.47;;;18.03;80.17
12360;BME280;6244;51.460;7.090;2023-07-13T18:32:26;100810.38;;;18.30;78.80
12360;BME280;6244;51.460;7.090;2023-07-13T18:37:24;100812.59;;;17.91;76.97
12360;BME280;6244;51.460;7.090;2023-07-13T18:42:21;100817.78;;;17.81;78.71
12360;BME280;6244;51.460;7.090;2023-07-13T18:47:21;100811.25;;;18.08;78.85
12360;BME280;6244;51.460;7.090;2023-07-13T18:52:21;100808.97;;;18.14;76.92
12360;BME280;6244;51.460;7.090;2023-07-13T18:57:18;100810.63;;;18.38;75.67
12360;BME280;6244;51.460;7.090;2023-07-13T19:02:16;100812.19;;;18.29;74.06
12360;BME280;6244;51.460;7.090;2023-07-13T19:07:15;100821.38;;;18.36;75.07
12360;BME280;6244;51.460;7.090;2023-07-13T19:12:17;100815.56;;;18.31;74.98
12360;BME280;6244;51.460;7.090;2023-07-13T19:17:15;100814.19;;;18.91;73.25
12360;BME280;6244;51.460;7.090;2023-07-13T19:22:12;100818.47;;;19.03;71.87
12360;BME280;6244;51.460;7.090;2023-07-13T19:27:12;100819.19;;;19.05;71.34
12360;BME280;6244;51.460;7.090;2023-07-13T19:32:10;100826.81;;;19.10;71.26
12360;BME280;6244;51.460;7.090;2023-07-13T19:37:16;100838.72;;;19.16;70.75
12360;BME280;6244;51.460;7.090;2023-07-13T19:42:18;100830.75;;;19.16;70.39
12360;BME280;6244;51.460;7.090;2023-07-13T19:47:17;100835.19;;;18.94;71.18
12360;BME280;6244;51.460;7.090;2023-07-13T19:52:16;100845.84;;;18.94;70.79
12360;BME280;6244;51.460;7.090;2023-07-13T19:57:14;100855.22;;;18.77;70.93
12360;BME280;6244;51.460;7.090;2023-07-13T20:02:12;100853.06;;;18.71;70.44
12360;BME280;6244;51.460;7.090;2023-07-13T20:07:13;100864.66;;;18.59;71.28
12360;BME280;6244;51.460;7.090;2023-07-13T20:12:12;100865.41;;;18.50;71.48
12360;BME280;6244;51.460;7.090;2023-07-13T20:17:20;100874.00;;;17.98;73.02
12360;BME280;6244;51.460;7.090;2023-07-13T20:22:17;100877.53;;;17.76;73.75
12360;BME280;6244;51.460;7.090;2023-07-13T20:27:14;100880.41;;;17.84;74.23
12360;BME280;6244;51.460;7.090;2023-07-13T20:32:14;100869.66;;;18.30;73.31
12360;BME280;6244;51.460;7.090;2023-07-13T20:37:25;100873.28;;;18.29;73.05
12360;BME280;6244;51.460;7.090;2023-07-13T20:42:23;100862.69;;;18.07;72.78
12360;BME280;6244;51.460;7.090;2023-07-13T20:47:23;100862.06;;;18.37;72.92
12360;BME280;6244;51.460;7.090;2023-07-13T20:52:22;100872.63;;;18.59;72.23
12360;BME280;6244;51.460;7.090;2023-07-13T20:57:19;100866.25;;;18.62;71.82
12360;BME280;6244;51.460;7.090;2023-07-13T21:02:30;100871.84;;;18.25;72.96
12360;BME280;6244;51.460;7.090;2023-07-13T21:07:27;100872.16;;;18.65;72.45
12360;BME280;6244;51.460;7.090;2023-07-13T21:12:23;100873.22;;;18.85;71.43
12360;BME280;6244;51.460;7.090;2023-07-13T21:17:20;100876.66;;;18.42;72.23
12360;BME280;6244;51.460;7.090;2023-07-13T21:22:18;100874.03;;;17.86;73.49
12360;BME280;6244;51.460;7.090;2023-07-13T21:27:14;100883.16;;;17.36;73.57
12360;BME280;6244;51.460;7.090;2023-07-13T21:32:14;100874.81;;;17.18;74.21
12360;BME280;6244;51.460;7.090;2023-07-13T21:37:15;100878.44;;;17.17;75.47
12360;BME280;6244;51.460;7.090;2023-07-13T21:42:14;100880.47;;;17.49;74.32
12360;BME280;6244;51.460;7.090;2023-07-13T21:47:11;100880.06;;;17.88;73.56
12360;BME280;6244;51.460;7.090;2023-07-13T21:52:14;100875.06;;;17.61;72.69
12360;BME280;6244;51.460;7.090;2023-07-13T21:57:14;100879.47;;;17.03;74.05
12360;BME280;6244;51.460;7.090;2023-07-13T22:02:11;100882.75;;;17.18;73.54
12360;BME280;6244;51.460;7.090;2023-07-13T22:07:09;100880.25;;;17.63;72.86
12360;BME280;6244;51.460;7.090;2023-07-13T22:12:06;100874.50;;;17.92;71.82
12360;BME280;6244;51.460;7.090;2023-07-13T22:17:05;100877.22;;;17.56;71.47
12360;BME280;6244;51.460;7.090;2023-07-13T22:22:02;100878.31;;;17.19;72.27
12360;BME280;6244;51.460;7.090;2023-07-13T22:26:59;100878.53;;;17.16;72.70
12360;BME280;6244;51.460;7.090;2023-07-13T22:31:55;100880.81;;;16.85;73.26
12360;BME280;6244;51.460;7.090;2023-07-13T22:36:54;100873.56;;;17.00;74.04
12360;BME280;6244;51.460;7.090;2023-07-13T22:41:50;100865.34;;;17.03;73.72
12360;BME280;6244;51.460;7.090;2023-07-13T22:46:47;100862.59;;;16.44;74.95
12360;BME280;6244;51.460;7.090;2023-07-13T22:51:44;100855.72;;;16.05;76.10
12360;BME280;6244;51.460;7.090;2023-07-13T22:56:42;100854.44;;;15.98;77.29
12360;BME280;6244;51.460;7.090;2023-07-13T23:01:39;100868.84;;;15.81;78.16
12360;BME280;6244;51.460;7.090;2023-07-13T23:06:37;100871.84;;;15.89;78.14
12360;BME280;6244;51.460;7.090;2023-07-13T23:11:34;100864.06;;;15.86;78.55
12360;BME280;6244;51.460;7.090;2023-07-13T23:16:32;100866.84;;;15.72;78.40
12360;BME280;6244;51.460;7.090;2023-07-13T23:21:28;100855.84;;;15.91;77.79
12360;BME280;6244;51.460;7.090;2023-07-13T23:26:26;100851.06;;;15.83;78.26
12360;BME280;6244;51.460;7.090;2023-07-13T23:31:25;100841.63;;;16.04;77.18
12360;BME280;6244;51.460;7.090;2023-07-13T23:36:23;100846.00;;;15.67;77.08
12360;BME280;6244;51.460;7.090;2023-07-13T23:41:22;100852.72;;;15.33;78.01
12360;BME280;6244;51.460;7.090;2023-07-13T23:46:24;100853.47;;;15.35;78.89
12360;BME280;6244;51.460;7.090;2023-07-13T23:51:24;100838.81;;;15.69;79.15
12360;BME280;6244;51.460;7.090;2023-07-13T23:56:23;100841.63;;;15.53;77.50
